This is the latest recevied weather packets stored in our database for station/object SP6TSE-13. If no packets are shown the sender has not sent any weather packets the latest 10 day(s).
| Time | Temp. | Humidity | Pressure | Rain* | Wind** | Luminosity | Snow |
|---|---|---|---|---|---|---|---|
| 1777569775 | 12.78° C | 44% | 1004.3 hPa | - | - | 0 W/m² | - |
| 1777565575 | 15° C | 35% | 1004.8 hPa | - | - | 0 W/m² | - |
| 1777563775 | 15° C | 35% | 1004.8 hPa | - | - | 0 W/m² | - |
| 1777561375 | 14.44° C | 36% | 1005.1 hPa | - | - | 0 W/m² | - |
| 1777560775 | 14.44° C | 36% | 1005.1 hPa | - | - | 0 W/m² | - |
| 1777552375 | 11.67° C | 36% | 1006.6 hPa | - | - | 0 W/m² | - |
| 1777548175 | 12.78° C | 38% | 1006.7 hPa | - | - | 0 W/m² | - |
| 1777536175 | 7.22° C | 41% | 1007.8 hPa | - | - | 0 W/m² | - |
| 1777532575 | 7.22° C | 41% | 1007.8 hPa | - | - | 0 W/m² | - |
| 1777531375 | 6.11° C | 49% | 1007.9 hPa | - | - | 0 W/m² | - |
| 1777528375 | 2.78° C | 61% | 1007.9 hPa | - | - | 0 W/m² | - |
| 1777516374 | -0.56° C | 73% | 1006.9 hPa | - | - | 0 W/m² | - |
| 1777509175 | -0.56° C | 73% | 1006.9 hPa | - | - | 0 W/m² | - |
| 1777503774 | -0.56° C | 73% | 1006.9 hPa | - | - | 0 W/m² | - |
| 1777502575 | -0.56° C | 73% | 1006.9 hPa | - | - | 0 W/m² | - |
| 1777500775 | -0.56° C | 73% | 1006.6 hPa | - | - | 0 W/m² | - |
| 1777498974 | 5° C | 43% | 1005.9 hPa | - | - | 0 W/m² | - |
| 1777498374 | 5° C | 43% | 1005.9 hPa | - | - | 0 W/m² | - |
| 1777497175 | 5° C | 43% | 1005.9 hPa | - | - | 0 W/m² | - |
| 1777496574 | 5° C | 43% | 1005.9 hPa | - | - | 0 W/m² | - |
| 1777492974 | 5° C | 43% | 1005.9 hPa | - | - | 0 W/m² | - |
| 1777492375 | 5° C | 43% | 1005.9 hPa | - | - | 0 W/m² | - |
| 1777489375 | 5° C | 43% | 1005.9 hPa | - | - | 0 W/m² | - |
| 1777485174 | 6.67° C | 41% | 1005.2 hPa | - | - | 0 W/m² | - |
| 1777482775 | 8.89° C | 33% | 1005 hPa | - | - | 0 W/m² | - |
* Rain since midnight (hover to see other rain measurements)
** Current wind speed in m/s (hover to see current wind gust speed)